Aviation Digital Data Service (ADDS)

Output produced by METARs form (0737 UTC 31 October 2014)
found at http://aviationweather.gov/adds/metars/
 
KRME 310533Z 3106/0106 00000KT P6SM BKN040 
     FM311400 12005KT P6SM SCT040 SCT120 
     FM311900 12005KT P6SM OVC100 
     FM010000 09005KT P6SM OVC040